createdAt,value
2022-10-01T00:02:21.263Z,7.78
2022-10-01T00:07:25.262Z,6.80
2022-10-01T00:12:27.872Z,7.63
2022-10-01T00:17:30.503Z,8.18
2022-10-01T00:22:36.242Z,8.23
2022-10-01T00:27:40.017Z,7.60
2022-10-01T00:32:42.593Z,8.67
2022-10-01T00:37:50.509Z,8.05
2022-10-01T00:42:53.050Z,8.13
2022-10-01T00:47:58.390Z,8.43
2022-10-01T00:53:06.068Z,8.27
2022-10-01T00:58:10.334Z,7.57
2022-10-01T01:03:13.723Z,7.57
2022-10-01T01:08:18.647Z,6.40
2022-10-01T01:13:30.761Z,6.78
2022-10-01T01:18:41.183Z,5.28
2022-10-01T01:24:09.709Z,5.45
2022-10-01T01:29:21.689Z,5.05
2022-10-01T01:34:28.805Z,4.50
2022-10-01T01:39:34.381Z,4.47
2022-10-01T01:44:42.821Z,4.20
2022-10-01T01:49:48.798Z,4.55
2022-10-01T01:54:52.646Z,4.47
2022-10-01T01:59:56.571Z,3.50
2022-10-01T02:05:03.619Z,4.10
2022-10-01T02:10:18.849Z,3.90
2022-10-01T02:15:28.987Z,4.57
2022-10-01T02:20:37.859Z,5.07
2022-10-01T02:25:44.164Z,4.38
2022-10-01T02:30:50.254Z,5.10
2022-10-01T02:35:54.678Z,4.93
2022-10-01T02:41:02.810Z,3.63
2022-10-01T02:46:15.799Z,4.70
2022-10-01T02:51:26.646Z,5.25
2022-10-01T02:56:48.951Z,4.75
2022-10-01T03:01:53.749Z,5.10
2022-10-01T03:06:58.791Z,3.58
2022-10-01T03:12:02.141Z,5.30
2022-10-01T03:17:06.550Z,5.55
2022-10-01T03:22:10.319Z,4.40
2022-10-01T03:27:12.961Z,6.17
2022-10-01T03:32:17.277Z,5.30
2022-10-01T03:37:20.194Z,5.35
2022-10-01T03:42:22.781Z,5.93
2022-10-01T03:47:26.922Z,6.45
2022-10-01T03:52:29.463Z,6.78
2022-10-01T03:57:32.063Z,6.03
2022-10-01T04:02:36.123Z,6.32
2022-10-01T04:07:38.810Z,5.03
2022-10-01T04:12:41.350Z,6.20
2022-10-01T04:17:46.092Z,5.90
2022-10-01T04:22:49.131Z,6.45
2022-10-01T04:27:57.569Z,6.78
2022-10-01T04:33:01.593Z,6.13
2022-10-01T04:38:06.663Z,5.40
2022-10-01T04:43:10.605Z,7.70
2022-10-01T04:48:14.474Z,8.13
2022-10-01T04:53:17.126Z,8.32
2022-10-01T04:58:19.883Z,8.13
2022-10-01T05:03:23.777Z,9.20
2022-10-01T05:08:26.441Z,10.02
2022-10-01T05:13:30.229Z,9.55
2022-10-01T05:18:34.463Z,9.32
2022-10-01T05:23:37.018Z,9.13
2022-10-01T05:28:44.359Z,8.93
2022-10-01T05:33:48.280Z,7.95
2022-10-01T05:38:52.356Z,8.57
2022-10-01T05:43:54.950Z,7.00
2022-10-01T05:48:58.826Z,9.23
2022-10-01T05:54:02.452Z,8.88
2022-10-01T05:59:05.391Z,9.50
2022-10-01T06:04:10.678Z,9.63
2022-10-01T06:09:13.961Z,9.35
2022-10-01T06:14:16.928Z,9.45
2022-10-01T06:19:20.948Z,8.75
2022-10-01T06:24:26.321Z,8.88
2022-10-01T06:29:28.927Z,9.07
2022-10-01T06:34:32.873Z,8.93
2022-10-01T06:39:35.535Z,8.60
2022-10-01T06:44:38.248Z,8.07
2022-10-01T06:49:46.751Z,9.52
2022-10-01T06:54:50.268Z,8.48
2022-10-01T06:59:54.252Z,9.80
2022-10-01T07:04:59.944Z,7.22
2022-10-01T07:10:03.013Z,9.88
2022-10-01T07:15:06.853Z,10.13
2022-10-01T07:20:11.513Z,10.05
2022-10-01T07:25:15.223Z,9.90
2022-10-01T07:30:17.950Z,8.97
2022-10-01T07:35:22.619Z,7.32
2022-10-01T07:40:27.482Z,6.97
2022-10-01T07:45:30.362Z,7.38
2022-10-01T07:50:34.613Z,7.10
2022-10-01T07:55:42.302Z,6.40
2022-10-01T08:00:46.415Z,6.20
2022-10-01T08:05:50.560Z,5.88
2022-10-01T08:10:53.580Z,5.50
2022-10-01T08:15:56.140Z,6.13
2022-10-01T08:21:02.061Z,5.30
2022-10-01T08:26:07.698Z,5.30
2022-10-01T08:31:10.251Z,5.15
2022-10-01T08:36:14.340Z,4.85
2022-10-01T08:41:33.657Z,4.80
2022-10-01T08:46:38.561Z,3.80
2022-10-01T08:51:48.004Z,3.60
2022-10-01T08:56:51.160Z,3.70
2022-10-01T09:01:53.774Z,2.58
2022-10-01T09:07:05.254Z,2.67
2022-10-01T09:12:28.228Z,17.70
2022-10-01T09:17:51.666Z,6.18
2022-10-01T09:23:08.657Z,6.93
2022-10-01T09:28:15.776Z,1.50
2022-10-01T09:33:20.816Z,1.75
2022-10-01T09:38:32.334Z,1.60
2022-10-01T09:43:38.491Z,1.70
2022-10-01T09:48:46.212Z,1.35
2022-10-01T09:54:03.394Z,1.33
2022-10-01T09:59:13.476Z,2.20
2022-10-01T10:04:20.950Z,1.17
2022-10-01T10:09:30.175Z,1.00
2022-10-01T10:14:34.964Z,1.50
2022-10-01T10:19:38.401Z,1.25
2022-10-01T10:24:42.491Z,1.40
2022-10-01T10:29:45.156Z,1.42
2022-10-01T10:34:47.964Z,11.63
2022-10-01T10:39:53.881Z,6.72
2022-10-01T10:45:03.287Z,3.35
2022-10-01T10:50:07.574Z,1.63
2022-10-01T10:55:26.890Z,1.02
2022-10-01T11:00:29.716Z,0.88
2022-10-01T11:05:34.832Z,0.80
2022-10-01T11:10:47.885Z,0.80
2022-10-01T11:16:09.138Z,0.57
2022-10-01T11:21:23.854Z,0.80
2022-10-01T11:31:39.406Z,0.60
2022-10-01T11:36:54.711Z,0.55
2022-10-01T11:42:03.454Z,0.65
2022-10-01T11:47:10.870Z,0.50
2022-10-01T11:52:23.588Z,0.70
2022-10-01T11:57:45.552Z,0.60
2022-10-01T12:02:56.161Z,0.60
2022-10-01T12:08:09.354Z,0.65
2022-10-01T12:13:22.497Z,0.60
2022-10-01T12:18:31.932Z,0.50
2022-10-01T12:23:48.261Z,0.50
2022-10-01T12:29:00.452Z,0.50
2022-10-01T12:34:19.224Z,0.50
2022-10-01T12:39:39.949Z,0.40
2022-10-01T12:44:57.792Z,0.30
2022-10-01T12:50:12.474Z,0.28
2022-10-01T13:00:41.779Z,0.38
2022-10-01T13:05:53.664Z,0.30
2022-10-01T13:11:05.635Z,0.30
2022-10-01T13:16:17.860Z,0.30
2022-10-01T13:21:32.321Z,0.20
2022-10-01T13:26:42.260Z,0.40
2022-10-01T13:31:58.032Z,0.30
2022-10-01T13:37:11.790Z,0.40
2022-10-01T13:42:22.385Z,0.33
2022-10-01T13:47:28.053Z,0.38
2022-10-01T13:52:31.566Z,0.98
2022-10-01T13:57:36.363Z,0.80
2022-10-01T14:02:42.158Z,0.60
2022-10-01T14:07:48.247Z,0.60
2022-10-01T14:13:09.281Z,0.40
2022-10-01T14:18:17.809Z,1.55
2022-10-01T14:23:27.855Z,0.30
2022-10-01T14:28:53.381Z,0.50
2022-10-01T14:34:25.949Z,0.40
2022-10-01T14:39:30.035Z,0.40
2022-10-01T14:44:38.698Z,0.40
2022-10-01T14:49:42.656Z,0.40
2022-10-01T14:54:48.244Z,0.20
2022-10-01T14:59:50.963Z,0.40
2022-10-01T15:04:57.669Z,0.47
2022-10-01T15:10:07.541Z,0.43
2022-10-01T15:15:21.661Z,0.45
2022-10-01T15:20:25.910Z,0.40
2022-10-01T15:25:32.665Z,0.40
2022-10-01T15:30:37.414Z,0.40
2022-10-01T15:35:41.802Z,0.50
2022-10-01T15:46:16.305Z,0.50
2022-10-01T15:51:24.821Z,0.57
2022-10-01T15:56:27.458Z,0.30
2022-10-01T16:01:41.846Z,0.68
2022-10-01T16:06:48.247Z,0.70
2022-10-01T16:11:52.893Z,0.77
2022-10-01T16:17:28.588Z,0.60
2022-10-01T16:22:32.890Z,0.60
2022-10-01T16:27:46.077Z,0.30
2022-10-01T16:32:50.506Z,0.77
2022-10-01T16:42:58.188Z,1.60
2022-10-01T16:48:03.244Z,1.25
2022-10-01T16:53:06.053Z,1.10
2022-10-01T16:58:09.073Z,1.20
2022-10-01T17:03:16.246Z,1.00
2022-10-01T17:08:19.143Z,1.00
2022-10-01T17:13:21.677Z,0.95
2022-10-01T17:18:26.217Z,1.27
2022-10-01T17:23:28.943Z,1.00
2022-10-01T17:28:31.548Z,1.30
2022-10-01T17:33:36.571Z,1.55
2022-10-01T17:38:40.280Z,1.50
2022-10-01T17:43:42.836Z,1.43
2022-10-01T17:48:48.758Z,1.70
2022-10-01T17:53:51.373Z,1.70
2022-10-01T17:58:55.026Z,1.10
2022-10-01T18:04:00.678Z,1.23
2022-10-01T18:09:03.765Z,1.60
2022-10-01T18:14:07.856Z,1.83
2022-10-01T18:24:36.225Z,1.60
2022-10-01T18:29:39.054Z,1.55
2022-10-01T18:34:48.206Z,1.40
2022-10-01T18:39:56.073Z,1.45
2022-10-01T18:45:02.186Z,1.35
2022-10-01T18:50:17.887Z,1.30
2022-10-01T18:55:31.505Z,1.38
2022-10-01T19:00:41.722Z,1.40
2022-10-01T19:06:01.329Z,1.20
2022-10-01T19:11:09.505Z,1.50
2022-10-01T19:16:23.656Z,1.20
2022-10-01T19:21:32.986Z,1.35
2022-10-01T19:26:45.197Z,1.00
2022-10-01T19:31:55.398Z,1.25
2022-10-01T19:37:02.789Z,1.63
2022-10-01T19:42:11.668Z,2.10
2022-10-01T19:47:28.847Z,1.80
2022-10-01T19:52:38.173Z,1.50
2022-10-01T19:57:42.613Z,1.70
2022-10-01T20:08:00.938Z,1.50
2022-10-01T20:13:21.419Z,1.40
2022-10-01T20:18:31.732Z,1.02
2022-10-01T20:23:44.571Z,1.13
2022-10-01T20:28:58.413Z,1.08
2022-10-01T20:34:09.529Z,0.87
2022-10-01T20:39:20.080Z,1.20
2022-10-01T20:44:28.164Z,1.08
2022-10-01T20:49:35.392Z,1.15
2022-10-01T20:54:46.599Z,1.20
2022-10-01T20:59:54.110Z,1.50
2022-10-01T21:05:03.990Z,1.42
2022-10-01T21:10:19.937Z,1.27
2022-10-01T21:15:28.481Z,1.38
2022-10-01T21:20:45.126Z,1.58
2022-10-01T21:26:06.088Z,1.40
2022-10-01T21:31:25.427Z,1.83
2022-10-01T21:36:35.016Z,1.60
2022-10-01T21:41:54.482Z,1.58
2022-10-01T21:47:04.574Z,1.75
2022-10-01T21:52:20.898Z,1.23
2022-10-01T21:57:39.490Z,1.70
2022-10-01T22:02:54.352Z,1.35
2022-10-01T22:08:06.462Z,1.65
2022-10-01T22:13:17.139Z,1.95
2022-10-01T22:18:36.614Z,1.50
2022-10-01T22:23:43.432Z,1.40
2022-10-01T22:28:51.526Z,1.92
2022-10-01T22:34:01.280Z,1.58
2022-10-01T22:39:08.580Z,2.30
2022-10-01T22:44:15.531Z,1.55
2022-10-01T22:49:36.094Z,1.58
2022-10-01T22:54:49.697Z,1.60
2022-10-01T23:00:02.556Z,1.75
2022-10-01T23:05:15.795Z,1.33
2022-10-01T23:10:24.566Z,1.70
2022-10-01T23:15:37.304Z,1.80
2022-10-01T23:20:51.865Z,2.00
2022-10-01T23:26:12.821Z,1.48
2022-10-01T23:31:32.800Z,1.70
2022-10-01T23:36:43.709Z,2.13
2022-10-01T23:41:50.608Z,2.05
2022-10-01T23:47:00.249Z,2.30
2022-10-01T23:52:06.543Z,1.80
2022-10-01T23:57:15.763Z,1.80
